sensor_id;sensor_type;location;lat;lon;timestamp;temperature;humidity
15937;DHT22;9163;48.818;8.976;2023-10-31T00:01:26;10.50;99.90
15937;DHT22;9163;48.818;8.976;2023-10-31T00:03:53;10.60;99.90
15937;DHT22;9163;48.818;8.976;2023-10-31T00:06:22;10.50;99.90
15937;DHT22;9163;48.818;8.976;2023-10-31T00:08:49;10.50;99.90
15937;DHT22;9163;48.818;8.976;2023-10-31T00:11:16;10.50;99.90
15937;DHT22;9163;48.818;8.976;2023-10-31T00:13:43;10.50;99.90
15937;DHT22;9163;48.818;8.976;2023-10-31T00:16:11;10.50;99.90
15937;DHT22;9163;48.818;8.976;2023-10-31T00:18:38;10.50;99.90
15937;DHT22;9163;48.818;8.976;2023-10-31T00:21:05;10.50;99.90
15937;DHT22;9163;48.818;8.976;2023-10-31T00:23:34;10.50;99.90
15937;DHT22;9163;48.818;8.976;2023-10-31T00:26:09;10.40;99.90
15937;DHT22;9163;48.818;8.976;2023-10-31T00:28:36;10.50;99.90
15937;DHT22;9163;48.818;8.976;2023-10-31T00:31:03;10.50;99.90
15937;DHT22;9163;48.818;8.976;2023-10-31T00:33:31;10.50;99.90
15937;DHT22;9163;48.818;8.976;2023-10-31T00:35:58;10.50;99.90
15937;DHT22;9163;48.818;8.976;2023-10-31T00:38:25;10.50;99.90
15937;DHT22;9163;48.818;8.976;2023-10-31T00:40:54;10.50;99.90
15937;DHT22;9163;48.818;8.976;2023-10-31T00:43:21;10.40;99.90
15937;DHT22;9163;48.818;8.976;2023-10-31T00:45:48;10.40;99.90
15937;DHT22;9163;48.818;8.976;2023-10-31T00:48:15;10.40;99.90
15937;DHT22;9163;48.818;8.976;2023-10-31T00:50:43;10.40;99.90
15937;DHT22;9163;48.818;8.976;2023-10-31T00:53:10;10.30;99.90
15937;DHT22;9163;48.818;8.976;2023-10-31T00:55:39;10.30;99.90
15937;DHT22;9163;48.818;8.976;2023-10-31T00:58:08;10.30;99.90
15937;DHT22;9163;48.818;8.976;2023-10-31T01:00:35;10.30;99.90
15937;DHT22;9163;48.818;8.976;2023-10-31T01:03:03;10.20;99.90
15937;DHT22;9163;48.818;8.976;2023-10-31T01:05:30;10.20;99.90
15937;DHT22;9163;48.818;8.976;2023-10-31T01:07:58;10.10;99.90
15937;DHT22;9163;48.818;8.976;2023-10-31T01:10:25;10.10;99.90
15937;DHT22;9163;48.818;8.976;2023-10-31T01:12:52;10.00;99.90
15937;DHT22;9163;48.818;8.976;2023-10-31T01:15:21;10.00;99.90
15937;DHT22;9163;48.818;8.976;2023-10-31T01:17:48;10.00;99.90
15937;DHT22;9163;48.818;8.976;2023-10-31T01:20:15;9.90;99.90
15937;DHT22;9163;48.818;8.976;2023-10-31T01:22:42;9.80;99.90
15937;DHT22;9163;48.818;8.976;2023-10-31T01:25:10;9.80;99.90
15937;DHT22;9163;48.818;8.976;2023-10-31T01:27:37;9.70;99.90
15937;DHT22;9163;48.818;8.976;2023-10-31T01:30:05;9.60;99.90
15937;DHT22;9163;48.818;8.976;2023-10-31T01:32:34;9.50;99.90
15937;DHT22;9163;48.818;8.976;2023-10-31T01:35:01;9.40;99.90
15937;DHT22;9163;48.818;8.976;2023-10-31T01:37:30;9.40;99.90
15937;DHT22;9163;48.818;8.976;2023-10-31T01:39:57;9.40;99.90
15937;DHT22;9163;48.818;8.976;2023-10-31T01:42:24;9.40;99.90
15937;DHT22;9163;48.818;8.976;2023-10-31T01:44:51;9.50;99.90
15937;DHT22;9163;48.818;8.976;2023-10-31T01:47:19;9.40;99.90
15937;DHT22;9163;48.818;8.976;2023-10-31T01:49:47;9.40;99.90
15937;DHT22;9163;48.818;8.976;2023-10-31T01:52:14;9.40;99.90
15937;DHT22;9163;48.818;8.976;2023-10-31T01:54:42;9.40;99.90
15937;DHT22;9163;48.818;8.976;2023-10-31T01:57:11;9.40;99.90
15937;DHT22;9163;48.818;8.976;2023-10-31T01:59:39;9.40;99.90
15937;DHT22;9163;48.818;8.976;2023-10-31T02:02:06;9.30;99.90
15937;DHT22;9163;48.818;8.976;2023-10-31T02:04:34;9.30;99.90
15937;DHT22;9163;48.818;8.976;2023-10-31T02:07:02;9.30;99.90
15937;DHT22;9163;48.818;8.976;2023-10-31T02:09:29;9.30;99.90
15937;DHT22;9163;48.818;8.976;2023-10-31T02:11:57;9.30;99.90
15937;DHT22;9163;48.818;8.976;2023-10-31T02:14:24;9.30;99.90
15937;DHT22;9163;48.818;8.976;2023-10-31T02:16:51;9.30;99.90
15937;DHT22;9163;48.818;8.976;2023-10-31T02:19:20;9.30;99.90
15937;DHT22;9163;48.818;8.976;2023-10-31T02:21:49;9.30;99.90
15937;DHT22;9163;48.818;8.976;2023-10-31T02:24:16;9.30;99.90
15937;DHT22;9163;48.818;8.976;2023-10-31T02:26:43;9.30;99.90
15937;DHT22;9163;48.818;8.976;2023-10-31T02:29:10;9.20;99.90
15937;DHT22;9163;48.818;8.976;2023-10-31T02:31:37;9.30;99.90
15937;DHT22;9163;48.818;8.976;2023-10-31T02:34:05;9.30;99.90
15937;DHT22;9163;48.818;8.976;2023-10-31T02:36:32;9.30;99.90
15937;DHT22;9163;48.818;8.976;2023-10-31T02:39:01;9.30;99.90
15937;DHT22;9163;48.818;8.976;2023-10-31T02:41:29;9.30;99.90
15937;DHT22;9163;48.818;8.976;2023-10-31T02:43:56;9.30;99.90
15937;DHT22;9163;48.818;8.976;2023-10-31T02:46:24;9.30;99.90
15937;DHT22;9163;48.818;8.976;2023-10-31T02:48:51;9.30;99.90
15937;DHT22;9163;48.818;8.976;2023-10-31T02:51:18;9.30;99.90
15937;DHT22;9163;48.818;8.976;2023-10-31T02:53:45;9.30;99.90
15937;DHT22;9163;48.818;8.976;2023-10-31T02:56:14;9.30;99.90
15937;DHT22;9163;48.818;8.976;2023-10-31T02:58:41;9.30;99.90
15937;DHT22;9163;48.818;8.976;2023-10-31T03:01:08;9.30;99.90
15937;DHT22;9163;48.818;8.976;2023-10-31T03:03:35;9.20;99.90
15937;DHT22;9163;48.818;8.976;2023-10-31T03:06:04;9.20;99.90
15937;DHT22;9163;48.818;8.976;2023-10-31T03:08:32;9.20;99.90
15937;DHT22;9163;48.818;8.976;2023-10-31T03:10:59;9.10;99.90
15937;DHT22;9163;48.818;8.976;2023-10-31T03:13:27;9.20;99.90
15937;DHT22;9163;48.818;8.976;2023-10-31T03:15:55;9.10;99.90
15937;DHT22;9163;48.818;8.976;2023-10-31T03:18:22;9.10;99.90
15937;DHT22;9163;48.818;8.976;2023-10-31T03:20:49;9.20;99.90
15937;DHT22;9163;48.818;8.976;2023-10-31T03:23:16;9.10;99.90
15937;DHT22;9163;48.818;8.976;2023-10-31T03:25:43;9.10;99.90
15937;DHT22;9163;48.818;8.976;2023-10-31T03:28:18;9.10;99.90
15937;DHT22;9163;48.818;8.976;2023-10-31T03:30:48;9.10;99.90
15937;DHT22;9163;48.818;8.976;2023-10-31T03:33:15;9.10;99.90
15937;DHT22;9163;48.818;8.976;2023-10-31T03:35:43;9.10;99.90
15937;DHT22;9163;48.818;8.976;2023-10-31T03:38:11;9.10;99.90
15937;DHT22;9163;48.818;8.976;2023-10-31T03:40:38;9.10;99.90
15937;DHT22;9163;48.818;8.976;2023-10-31T03:43:05;9.10;99.90
15937;DHT22;9163;48.818;8.976;2023-10-31T03:45:33;9.10;99.90
15937;DHT22;9163;48.818;8.976;2023-10-31T03:48:01;9.10;99.90
15937;DHT22;9163;48.818;8.976;2023-10-31T03:50:29;9.10;99.90
15937;DHT22;9163;48.818;8.976;2023-10-31T03:52:56;9.10;99.90
15937;DHT22;9163;48.818;8.976;2023-10-31T03:55:23;9.10;99.90
15937;DHT22;9163;48.818;8.976;2023-10-31T03:57:51;9.10;99.90
15937;DHT22;9163;48.818;8.976;2023-10-31T04:00:18;9.10;99.90
15937;DHT22;9163;48.818;8.976;2023-10-31T04:02:45;9.20;99.90
15937;DHT22;9163;48.818;8.976;2023-10-31T04:05:14;9.20;99.90
15937;DHT22;9163;48.818;8.976;2023-10-31T04:07:41;9.10;99.90
15937;DHT22;9163;48.818;8.976;2023-10-31T04:10:09;9.10;99.90
15937;DHT22;9163;48.818;8.976;2023-10-31T04:12:36;9.10;99.90
15937;DHT22;9163;48.818;8.976;2023-10-31T04:15:04;9.10;99.90
15937;DHT22;9163;48.818;8.976;2023-10-31T04:17:31;9.10;99.90
15937;DHT22;9163;48.818;8.976;2023-10-31T04:19:59;9.20;99.90
15937;DHT22;9163;48.818;8.976;2023-10-31T04:22:27;9.10;99.90
15937;DHT22;9163;48.818;8.976;2023-10-31T04:24:55;9.10;99.90
15937;DHT22;9163;48.818;8.976;2023-10-31T04:27:22;9.00;99.90
15937;DHT22;9163;48.818;8.976;2023-10-31T04:29:50;9.10;99.90
15937;DHT22;9163;48.818;8.976;2023-10-31T04:32:17;9.10;99.90
15937;DHT22;9163;48.818;8.976;2023-10-31T04:34:44;9.00;99.90
15937;DHT22;9163;48.818;8.976;2023-10-31T04:37:11;8.90;99.90
15937;DHT22;9163;48.818;8.976;2023-10-31T04:39:40;8.90;99.90
15937;DHT22;9163;48.818;8.976;2023-10-31T04:42:07;8.80;99.90
15937;DHT22;9163;48.818;8.976;2023-10-31T04:44:34;8.80;99.90
15937;DHT22;9163;48.818;8.976;2023-10-31T04:47:01;8.70;99.90
15937;DHT22;9163;48.818;8.976;2023-10-31T04:49:29;8.70;99.90
15937;DHT22;9163;48.818;8.976;2023-10-31T04:51:56;8.70;99.90
15937;DHT22;9163;48.818;8.976;2023-10-31T04:54:23;8.70;99.90
15937;DHT22;9163;48.818;8.976;2023-10-31T04:56:52;8.70;99.90
15937;DHT22;9163;48.818;8.976;2023-10-31T04:59:19;8.80;99.90
15937;DHT22;9163;48.818;8.976;2023-10-31T05:01:50;8.70;99.90
15937;DHT22;9163;48.818;8.976;2023-10-31T05:04:18;8.70;99.90
15937;DHT22;9163;48.818;8.976;2023-10-31T05:06:45;8.70;99.90
15937;DHT22;9163;48.818;8.976;2023-10-31T05:09:13;8.60;99.90
15937;DHT22;9163;48.818;8.976;2023-10-31T05:11:41;8.70;99.90
15937;DHT22;9163;48.818;8.976;2023-10-31T05:14:10;8.70;99.90
15937;DHT22;9163;48.818;8.976;2023-10-31T05:16:41;8.70;99.90
15937;DHT22;9163;48.818;8.976;2023-10-31T05:19:08;8.60;99.90
15937;DHT22;9163;48.818;8.976;2023-10-31T05:21:35;8.60;99.90
15937;DHT22;9163;48.818;8.976;2023-10-31T05:24:03;8.60;99.90
15937;DHT22;9163;48.818;8.976;2023-10-31T05:26:30;8.50;99.90
15937;DHT22;9163;48.818;8.976;2023-10-31T05:28:58;8.60;99.90
15937;DHT22;9163;48.818;8.976;2023-10-31T05:31:26;8.60;99.90
15937;DHT22;9163;48.818;8.976;2023-10-31T05:33:54;8.60;99.90
15937;DHT22;9163;48.818;8.976;2023-10-31T05:36:22;8.50;99.90
15937;DHT22;9163;48.818;8.976;2023-10-31T05:38:50;8.50;99.90
15937;DHT22;9163;48.818;8.976;2023-10-31T05:41:17;8.50;99.90
15937;DHT22;9163;48.818;8.976;2023-10-31T05:43:44;8.50;99.90
15937;DHT22;9163;48.818;8.976;2023-10-31T05:46:11;8.50;99.90
15937;DHT22;9163;48.818;8.976;2023-10-31T05:48:44;8.40;99.90
15937;DHT22;9163;48.818;8.976;2023-10-31T05:51:11;8.40;99.90
15937;DHT22;9163;48.818;8.976;2023-10-31T05:53:40;8.50;99.90
15937;DHT22;9163;48.818;8.976;2023-10-31T05:56:09;8.60;99.90
15937;DHT22;9163;48.818;8.976;2023-10-31T05:58:37;8.60;99.90
15937;DHT22;9163;48.818;8.976;2023-10-31T06:01:05;8.60;99.90
15937;DHT22;9163;48.818;8.976;2023-10-31T06:03:32;8.60;99.90
15937;DHT22;9163;48.818;8.976;2023-10-31T06:06:01;8.60;99.90
15937;DHT22;9163;48.818;8.976;2023-10-31T06:08:28;8.60;99.90
15937;DHT22;9163;48.818;8.976;2023-10-31T06:10:56;8.70;99.90
15937;DHT22;9163;48.818;8.976;2023-10-31T06:13:23;8.70;99.90
15937;DHT22;9163;48.818;8.976;2023-10-31T06:15:52;8.70;99.90
15937;DHT22;9163;48.818;8.976;2023-10-31T06:18:19;8.70;99.90
15937;DHT22;9163;48.818;8.976;2023-10-31T06:20:46;8.70;99.90
15937;DHT22;9163;48.818;8.976;2023-10-31T06:23:15;8.80;99.90
15937;DHT22;9163;48.818;8.976;2023-10-31T06:25:42;8.70;99.90
15937;DHT22;9163;48.818;8.976;2023-10-31T06:28:09;8.80;99.90
15937;DHT22;9163;48.818;8.976;2023-10-31T06:30:36;8.80;99.90
15937;DHT22;9163;48.818;8.976;2023-10-31T06:33:04;8.70;99.90
15937;DHT22;9163;48.818;8.976;2023-10-31T06:35:36;8.70;99.90
15937;DHT22;9163;48.818;8.976;2023-10-31T06:38:03;8.70;99.90
15937;DHT22;9163;48.818;8.976;2023-10-31T06:40:31;8.70;99.90
15937;DHT22;9163;48.818;8.976;2023-10-31T06:42:59;8.60;99.90
15937;DHT22;9163;48.818;8.976;2023-10-31T06:45:26;8.60;99.90
15937;DHT22;9163;48.818;8.976;2023-10-31T06:47:53;8.60;99.90
15937;DHT22;9163;48.818;8.976;2023-10-31T06:50:21;8.60;99.90
15937;DHT22;9163;48.818;8.976;2023-10-31T06:52:48;8.60;99.90
15937;DHT22;9163;48.818;8.976;2023-10-31T06:55:15;8.60;99.90
15937;DHT22;9163;48.818;8.976;2023-10-31T06:57:44;8.60;99.90
15937;DHT22;9163;48.818;8.976;2023-10-31T07:00:12;8.70;99.90
15937;DHT22;9163;48.818;8.976;2023-10-31T07:02:39;8.70;99.90
15937;DHT22;9163;48.818;8.976;2023-10-31T07:05:07;8.60;99.90
15937;DHT22;9163;48.818;8.976;2023-10-31T07:07:34;8.60;99.90
15937;DHT22;9163;48.818;8.976;2023-10-31T07:10:02;8.60;99.90
15937;DHT22;9163;48.818;8.976;2023-10-31T07:12:29;8.60;99.90
15937;DHT22;9163;48.818;8.976;2023-10-31T07:14:58;8.60;99.90
15937;DHT22;9163;48.818;8.976;2023-10-31T07:17:25;8.60;99.90
15937;DHT22;9163;48.818;8.976;2023-10-31T07:19:52;8.60;99.90
15937;DHT22;9163;48.818;8.976;2023-10-31T07:22:20;8.50;99.90
15937;DHT22;9163;48.818;8.976;2023-10-31T07:24:48;8.60;99.90
15937;DHT22;9163;48.818;8.976;2023-10-31T07:27:15;8.70;99.90
15937;DHT22;9163;48.818;8.976;2023-10-31T07:29:42;8.70;99.90
15937;DHT22;9163;48.818;8.976;2023-10-31T07:32:11;8.60;99.90
15937;DHT22;9163;48.818;8.976;2023-10-31T07:34:40;8.70;99.90
15937;DHT22;9163;48.818;8.976;2023-10-31T07:37:08;8.70;99.90
15937;DHT22;9163;48.818;8.976;2023-10-31T07:39:35;8.80;99.90
15937;DHT22;9163;48.818;8.976;2023-10-31T07:42:02;8.80;99.90
15937;DHT22;9163;48.818;8.976;2023-10-31T07:44:30;8.90;99.90
15937;DHT22;9163;48.818;8.976;2023-10-31T07:46:57;8.90;99.90
15937;DHT22;9163;48.818;8.976;2023-10-31T07:49:25;9.00;99.90
15937;DHT22;9163;48.818;8.976;2023-10-31T07:51:53;9.10;99.90
15937;DHT22;9163;48.818;8.976;2023-10-31T07:54:20;9.10;99.90
15937;DHT22;9163;48.818;8.976;2023-10-31T07:56:47;9.30;99.90
15937;DHT22;9163;48.818;8.976;2023-10-31T07:59:15;9.30;99.90
15937;DHT22;9163;48.818;8.976;2023-10-31T08:01:42;9.50;99.90
15937;DHT22;9163;48.818;8.976;2023-10-31T08:04:09;9.60;99.90
15937;DHT22;9163;48.818;8.976;2023-10-31T08:06:38;9.60;99.90
15937;DHT22;9163;48.818;8.976;2023-10-31T08:09:05;9.70;99.90
15937;DHT22;9163;48.818;8.976;2023-10-31T08:11:32;9.80;99.90
15937;DHT22;9163;48.818;8.976;2023-10-31T08:14:01;9.90;99.90
15937;DHT22;9163;48.818;8.976;2023-10-31T08:16:28;9.90;99.90
15937;DHT22;9163;48.818;8.976;2023-10-31T08:18:56;10.00;99.90
15937;DHT22;9163;48.818;8.976;2023-10-31T08:21:23;10.00;99.90
15937;DHT22;9163;48.818;8.976;2023-10-31T08:23:51;10.10;99.90
15937;DHT22;9163;48.818;8.976;2023-10-31T08:26:18;10.20;99.90
15937;DHT22;9163;48.818;8.976;2023-10-31T08:28:46;10.20;99.90
15937;DHT22;9163;48.818;8.976;2023-10-31T08:31:13;10.20;99.90
15937;DHT22;9163;48.818;8.976;2023-10-31T08:33:41;10.30;99.90
15937;DHT22;9163;48.818;8.976;2023-10-31T08:36:08;10.40;99.90
15937;DHT22;9163;48.818;8.976;2023-10-31T08:38:36;10.40;99.90
15937;DHT22;9163;48.818;8.976;2023-10-31T08:41:04;10.50;99.90
15937;DHT22;9163;48.818;8.976;2023-10-31T08:43:32;10.60;99.90
15937;DHT22;9163;48.818;8.976;2023-10-31T08:45:59;10.50;99.90
15937;DHT22;9163;48.818;8.976;2023-10-31T08:48:26;10.70;99.90
15937;DHT22;9163;48.818;8.976;2023-10-31T08:50:53;11.00;99.90
15937;DHT22;9163;48.818;8.976;2023-10-31T08:53:21;11.30;99.90
15937;DHT22;9163;48.818;8.976;2023-10-31T08:55:48;11.20;99.90
15937;DHT22;9163;48.818;8.976;2023-10-31T08:58:17;11.20;99.90
15937;DHT22;9163;48.818;8.976;2023-10-31T09:00:44;11.10;99.90
15937;DHT22;9163;48.818;8.976;2023-10-31T09:03:11;11.00;99.90
15937;DHT22;9163;48.818;8.976;2023-10-31T09:05:39;11.20;99.90
15937;DHT22;9163;48.818;8.976;2023-10-31T09:08:07;11.20;99.90
15937;DHT22;9163;48.818;8.976;2023-10-31T09:10:36;11.40;99.90
15937;DHT22;9163;48.818;8.976;2023-10-31T09:13:04;11.20;99.90
15937;DHT22;9163;48.818;8.976;2023-10-31T09:15:32;11.20;99.90
15937;DHT22;9163;48.818;8.976;2023-10-31T09:18:00;11.20;99.90
15937;DHT22;9163;48.818;8.976;2023-10-31T09:20:28;11.60;99.90
15937;DHT22;9163;48.818;8.976;2023-10-31T09:22:55;12.20;62.70
15937;DHT22;9163;48.818;8.976;2023-10-31T09:25:23;13.00;1.00
15937;DHT22;9163;48.818;8.976;2023-10-31T09:27:50;13.50;1.00
15937;DHT22;9163;48.818;8.976;2023-10-31T09:30:17;14.00;1.00
15937;DHT22;9163;48.818;8.976;2023-10-31T09:32:46;15.10;1.00
15937;DHT22;9163;48.818;8.976;2023-10-31T09:35:13;15.70;1.00
15937;DHT22;9163;48.818;8.976;2023-10-31T09:37:41;16.40;1.00
15937;DHT22;9163;48.818;8.976;2023-10-31T09:40:09;17.00;1.00
15937;DHT22;9163;48.818;8.976;2023-10-31T09:42:37;16.70;1.00
15937;DHT22;9163;48.818;8.976;2023-10-31T09:45:05;16.20;1.00
15937;DHT22;9163;48.818;8.976;2023-10-31T09:47:35;15.30;1.00
15937;DHT22;9163;48.818;8.976;2023-10-31T09:50:04;15.20;1.00
15937;DHT22;9163;48.818;8.976;2023-10-31T09:52:32;14.40;1.00
15937;DHT22;9163;48.818;8.976;2023-10-31T09:55:00;14.40;1.00
15937;DHT22;9163;48.818;8.976;2023-10-31T09:57:27;14.10;1.00
15937;DHT22;9163;48.818;8.976;2023-10-31T09:59:55;13.20;1.00
15937;DHT22;9163;48.818;8.976;2023-10-31T10:02:22;13.20;1.00
15937;DHT22;9163;48.818;8.976;2023-10-31T10:04:50;12.90;1.00
15937;DHT22;9163;48.818;8.976;2023-10-31T10:07:19;12.40;1.00
15937;DHT22;9163;48.818;8.976;2023-10-31T10:09:46;12.20;1.00
15937;DHT22;9163;48.818;8.976;2023-10-31T10:12:15;12.10;1.00
15937;DHT22;9163;48.818;8.976;2023-10-31T10:14:45;12.10;1.00
15937;DHT22;9163;48.818;8.976;2023-10-31T10:17:17;12.10;1.00
15937;DHT22;9163;48.818;8.976;2023-10-31T10:19:46;12.10;1.00
15937;DHT22;9163;48.818;8.976;2023-10-31T10:22:14;12.00;1.00
15937;DHT22;9163;48.818;8.976;2023-10-31T10:24:43;11.80;1.00
15937;DHT22;9163;48.818;8.976;2023-10-31T10:27:11;11.70;1.00
15937;DHT22;9163;48.818;8.976;2023-10-31T10:29:38;11.60;29.50
15937;DHT22;9163;48.818;8.976;2023-10-31T10:32:06;11.70;61.30
15937;DHT22;9163;48.818;8.976;2023-10-31T10:34:35;11.70;51.00
15937;DHT22;9163;48.818;8.976;2023-10-31T10:37:05;11.70;74.10
15937;DHT22;9163;48.818;8.976;2023-10-31T10:39:33;11.70;37.20
15937;DHT22;9163;48.818;8.976;2023-10-31T10:42:05;11.70;32.30
15937;DHT22;9163;48.818;8.976;2023-10-31T10:44:34;11.70;35.00
15937;DHT22;9163;48.818;8.976;2023-10-31T10:47:03;11.70;44.40
15937;DHT22;9163;48.818;8.976;2023-10-31T10:49:33;11.80;67.40
15937;DHT22;9163;48.818;8.976;2023-10-31T10:52:11;11.80;47.00
15937;DHT22;9163;48.818;8.976;2023-10-31T10:54:44;11.70;51.90
15937;DHT22;9163;48.818;8.976;2023-10-31T10:57:19;12.00;51.50
15937;DHT22;9163;48.818;8.976;2023-10-31T10:59:50;12.10;46.10
15937;DHT22;9163;48.818;8.976;2023-10-31T11:02:20;12.10;50.00
15937;DHT22;9163;48.818;8.976;2023-10-31T11:04:48;12.20;49.20
15937;DHT22;9163;48.818;8.976;2023-10-31T11:07:16;12.20;35.10
15937;DHT22;9163;48.818;8.976;2023-10-31T11:09:45;12.00;26.90
15937;DHT22;9163;48.818;8.976;2023-10-31T11:12:13;12.10;24.60
15937;DHT22;9163;48.818;8.976;2023-10-31T11:14:43;12.30;19.30
15937;DHT22;9163;48.818;8.976;2023-10-31T11:17:16;12.20;14.30
15937;DHT22;9163;48.818;8.976;2023-10-31T11:19:49;12.70;1.00
15937;DHT22;9163;48.818;8.976;2023-10-31T11:22:17;13.00;1.00
15937;DHT22;9163;48.818;8.976;2023-10-31T11:24:45;13.20;1.00
15937;DHT22;9163;48.818;8.976;2023-10-31T11:27:12;13.20;1.00
15937;DHT22;9163;48.818;8.976;2023-10-31T11:29:40;13.00;1.00
15937;DHT22;9163;48.818;8.976;2023-10-31T11:32:10;12.70;1.00
15937;DHT22;9163;48.818;8.976;2023-10-31T11:34:38;12.50;1.00
15937;DHT22;9163;48.818;8.976;2023-10-31T11:37:19;12.80;1.00
15937;DHT22;9163;48.818;8.976;2023-10-31T11:40:17;12.90;1.00
15937;DHT22;9163;48.818;8.976;2023-10-31T11:42:47;13.00;1.00
15937;DHT22;9163;48.818;8.976;2023-10-31T11:45:27;12.80;1.00
15937;DHT22;9163;48.818;8.976;2023-10-31T11:47:57;12.60;1.00
15937;DHT22;9163;48.818;8.976;2023-10-31T11:50:24;12.40;1.00
15937;DHT22;9163;48.818;8.976;2023-10-31T11:53:05;12.50;1.00
15937;DHT22;9163;48.818;8.976;2023-10-31T11:55:34;12.50;1.00
15937;DHT22;9163;48.818;8.976;2023-10-31T11:58:18;12.40;1.00
15937;DHT22;9163;48.818;8.976;2023-10-31T12:00:46;12.40;1.00
15937;DHT22;9163;48.818;8.976;2023-10-31T12:03:17;12.50;1.00
15937;DHT22;9163;48.818;8.976;2023-10-31T12:05:51;12.60;1.00
15937;DHT22;9163;48.818;8.976;2023-10-31T12:08:27;12.70;1.00
15937;DHT22;9163;48.818;8.976;2023-10-31T12:11:06;12.80;1.00
15937;DHT22;9163;48.818;8.976;2023-10-31T12:13:35;12.70;1.00
15937;DHT22;9163;48.818;8.976;2023-10-31T12:16:03;12.60;1.00
15937;DHT22;9163;48.818;8.976;2023-10-31T12:18:33;12.70;1.00
15937;DHT22;9163;48.818;8.976;2023-10-31T12:21:01;13.10;1.00
15937;DHT22;9163;48.818;8.976;2023-10-31T12:23:28;13.40;1.00
15937;DHT22;9163;48.818;8.976;2023-10-31T12:25:55;13.30;1.00
15937;DHT22;9163;48.818;8.976;2023-10-31T12:28:24;13.20;1.00
15937;DHT22;9163;48.818;8.976;2023-10-31T12:30:53;12.70;1.00
15937;DHT22;9163;48.818;8.976;2023-10-31T12:33:22;12.60;1.00
15937;DHT22;9163;48.818;8.976;2023-10-31T12:35:57;12.70;1.00
15937;DHT22;9163;48.818;8.976;2023-10-31T12:38:25;12.70;1.00
15937;DHT22;9163;48.818;8.976;2023-10-31T12:40:53;12.50;1.00
15937;DHT22;9163;48.818;8.976;2023-10-31T12:43:20;12.40;1.00
15937;DHT22;9163;48.818;8.976;2023-10-31T12:45:48;12.30;10.50
15937;DHT22;9163;48.818;8.976;2023-10-31T12:48:15;12.20;20.20
15937;DHT22;9163;48.818;8.976;2023-10-31T12:50:43;12.20;10.00
15937;DHT22;9163;48.818;8.976;2023-10-31T12:53:23;12.20;12.10
15937;DHT22;9163;48.818;8.976;2023-10-31T12:55:50;12.40;15.40
15937;DHT22;9163;48.818;8.976;2023-10-31T12:58:20;12.40;1.00
15937;DHT22;9163;48.818;8.976;2023-10-31T13:00:48;12.60;1.00
15937;DHT22;9163;48.818;8.976;2023-10-31T13:03:16;12.90;1.00
15937;DHT22;9163;48.818;8.976;2023-10-31T13:05:43;13.40;1.00
15937;DHT22;9163;48.818;8.976;2023-10-31T13:08:15;13.30;1.00
15937;DHT22;9163;48.818;8.976;2023-10-31T13:10:43;13.40;1.00
15937;DHT22;9163;48.818;8.976;2023-10-31T13:13:10;13.70;1.00
15937;DHT22;9163;48.818;8.976;2023-10-31T13:15:38;13.60;1.00
15937;DHT22;9163;48.818;8.976;2023-10-31T13:18:05;13.30;1.00
15937;DHT22;9163;48.818;8.976;2023-10-31T13:20:32;13.30;1.00
15937;DHT22;9163;48.818;8.976;2023-10-31T13:23:00;13.10;1.00
15937;DHT22;9163;48.818;8.976;2023-10-31T13:25:30;13.00;1.00
15937;DHT22;9163;48.818;8.976;2023-10-31T13:27:58;12.90;1.00
15937;DHT22;9163;48.818;8.976;2023-10-31T13:30:25;13.00;1.00
15937;DHT22;9163;48.818;8.976;2023-10-31T13:32:52;12.80;1.00
15937;DHT22;9163;48.818;8.976;2023-10-31T13:35:20;12.80;1.00
15937;DHT22;9163;48.818;8.976;2023-10-31T13:37:47;12.80;1.00
15937;DHT22;9163;48.818;8.976;2023-10-31T13:40:14;12.80;1.00
15937;DHT22;9163;48.818;8.976;2023-10-31T13:42:43;12.90;1.00
15937;DHT22;9163;48.818;8.976;2023-10-31T13:45:10;12.80;1.00
15937;DHT22;9163;48.818;8.976;2023-10-31T13:47:37;12.90;1.00
15937;DHT22;9163;48.818;8.976;2023-10-31T13:50:06;12.80;1.00
15937;DHT22;9163;48.818;8.976;2023-10-31T13:52:34;12.90;1.00
15937;DHT22;9163;48.818;8.976;2023-10-31T13:55:01;12.80;1.00
15937;DHT22;9163;48.818;8.976;2023-10-31T13:57:28;12.80;1.00
15937;DHT22;9163;48.818;8.976;2023-10-31T13:59:57;12.80;1.00
15937;DHT22;9163;48.818;8.976;2023-10-31T14:02:26;12.90;1.00
15937;DHT22;9163;48.818;8.976;2023-10-31T14:04:54;12.80;1.00
15937;DHT22;9163;48.818;8.976;2023-10-31T14:07:22;12.80;1.00
15937;DHT22;9163;48.818;8.976;2023-10-31T14:09:50;12.90;1.00
15937;DHT22;9163;48.818;8.976;2023-10-31T14:12:17;12.80;1.00
15937;DHT22;9163;48.818;8.976;2023-10-31T14:14:44;12.80;1.00
15937;DHT22;9163;48.818;8.976;2023-10-31T14:17:15;12.70;1.00
15937;DHT22;9163;48.818;8.976;2023-10-31T14:19:42;12.60;1.00
15937;DHT22;9163;48.818;8.976;2023-10-31T14:22:12;12.30;1.00
15937;DHT22;9163;48.818;8.976;2023-10-31T14:24:39;12.30;1.00
15937;DHT22;9163;48.818;8.976;2023-10-31T14:27:07;12.20;1.00
15937;DHT22;9163;48.818;8.976;2023-10-31T14:29:34;12.20;1.00
15937;DHT22;9163;48.818;8.976;2023-10-31T14:32:06;12.20;1.00
15937;DHT22;9163;48.818;8.976;2023-10-31T14:34:34;12.00;24.20
15937;DHT22;9163;48.818;8.976;2023-10-31T14:37:02;11.80;85.40
15937;DHT22;9163;48.818;8.976;2023-10-31T14:39:29;11.50;99.90
15937;DHT22;9163;48.818;8.976;2023-10-31T14:41:56;11.50;99.90
15937;DHT22;9163;48.818;8.976;2023-10-31T14:44:24;11.40;99.90
15937;DHT22;9163;48.818;8.976;2023-10-31T14:46:51;11.40;99.90
15937;DHT22;9163;48.818;8.976;2023-10-31T14:49:19;11.40;99.90
15937;DHT22;9163;48.818;8.976;2023-10-31T14:51:48;11.50;99.90
15937;DHT22;9163;48.818;8.976;2023-10-31T14:54:15;11.50;99.90
15937;DHT22;9163;48.818;8.976;2023-10-31T14:56:42;11.40;99.90
15937;DHT22;9163;48.818;8.976;2023-10-31T14:59:09;11.50;99.90
15937;DHT22;9163;48.818;8.976;2023-10-31T15:01:37;11.40;99.90
15937;DHT22;9163;48.818;8.976;2023-10-31T15:04:05;11.40;99.90
15937;DHT22;9163;48.818;8.976;2023-10-31T15:06:32;11.50;99.90
15937;DHT22;9163;48.818;8.976;2023-10-31T15:09:01;11.40;99.90
15937;DHT22;9163;48.818;8.976;2023-10-31T15:11:28;11.40;99.90
15937;DHT22;9163;48.818;8.976;2023-10-31T15:13:55;11.30;99.90
15937;DHT22;9163;48.818;8.976;2023-10-31T15:16:22;11.30;99.90
15937;DHT22;9163;48.818;8.976;2023-10-31T15:18:50;11.30;99.90
15937;DHT22;9163;48.818;8.976;2023-10-31T15:21:17;11.10;99.90
15937;DHT22;9163;48.818;8.976;2023-10-31T15:23:44;11.20;99.90
15937;DHT22;9163;48.818;8.976;2023-10-31T15:26:13;11.10;99.90
15937;DHT22;9163;48.818;8.976;2023-10-31T15:28:40;11.00;99.90
15937;DHT22;9163;48.818;8.976;2023-10-31T15:31:08;10.90;99.90
15937;DHT22;9163;48.818;8.976;2023-10-31T15:33:35;10.90;99.90
15937;DHT22;9163;48.818;8.976;2023-10-31T15:36:03;10.90;99.90
15937;DHT22;9163;48.818;8.976;2023-10-31T15:38:30;11.10;99.90
15937;DHT22;9163;48.818;8.976;2023-10-31T15:40:58;11.40;99.90
15937;DHT22;9163;48.818;8.976;2023-10-31T15:43:26;11.90;99.90
15937;DHT22;9163;48.818;8.976;2023-10-31T15:45:53;12.50;99.90
15937;DHT22;9163;48.818;8.976;2023-10-31T15:48:20;12.70;99.90
15937;DHT22;9163;48.818;8.976;2023-10-31T15:50:48;12.40;99.90
15937;DHT22;9163;48.818;8.976;2023-10-31T15:53:15;12.20;99.90
15937;DHT22;9163;48.818;8.976;2023-10-31T15:55:42;11.80;99.90
15937;DHT22;9163;48.818;8.976;2023-10-31T15:58:10;11.70;99.90
15937;DHT22;9163;48.818;8.976;2023-10-31T16:00:39;11.40;99.90
15937;DHT22;9163;48.818;8.976;2023-10-31T16:03:06;11.20;99.90